Time;durP1;ratioP1;P1;durP2;ratioP2;P2;SDS_P1;SDS_P2;PMS_P1;PMS_P2;Temp;Humidity;BMP_temperature;BMP_pressure;BME280_temperature;BME280_humidity;BME280_pressure;Samples;Min_cycle;Max_cycle;Signal;HPM_P1;HPM_P2
2021/04/28 00:00:58;;;;;;;;;;;;;;;;;;;;;
2021/04/28 00:07:47;;;;;;;9.00;7.87;;;11.30;56.90;;;;;;4893455;28;20863;-87
2021/04/28 00:16:59;;;;;;;10.27;7.53;;;11.00;56.30;;;;;;4968748;28;20433;-86
2021/04/28 00:19:29;;;;;;;8.33;7.53;;;10.90;56.30;;;;;;5059845;28;20449;-86
2021/04/28 00:22:07;;;;;;;8.90;8.00;;;10.90;56.50;;;;;;5058108;28;20441;-88
2021/04/28 00:24:37;;;;;;;8.53;7.30;;;10.90;57.10;;;;;;5058701;28;20453;-86
2021/04/28 00:27:11;;;;;;;11.07;7.70;;;10.80;56.60;;;;;;5055186;28;20460;-87
2021/04/28 00:30:17;;;;;;;8.57;7.57;;;10.80;56.90;;;;;;5052037;28;20453;-87
2021/04/28 00:33:07;;;;;;;9.43;7.67;;;10.80;57.00;;;;;;5036890;28;20481;-87
2021/04/28 00:35:39;;;;;;;9.53;8.53;;;10.70;57.30;;;;;;5036071;28;20469;-87
2021/04/28 00:41:10;;;;;;;11.07;8.40;;;10.70;57.40;;;;;;4979557;28;20539;-87
2021/04/28 00:43:45;;;;;;;8.83;7.93;;;10.70;58.10;;;;;;4974099;28;20451;-87
2021/04/28 00:46:32;;;;;;;9.23;8.40;;;10.60;58.30;;;;;;5016121;28;20500;-87
2021/04/28 00:49:09;;;;;;;11.67;9.07;;;10.50;59.00;;;;;;5036268;28;20461;-87
2021/04/28 00:51:52;;;;;;;10.07;7.90;;;10.50;59.20;;;;;;5016429;28;20485;-87
2021/04/28 00:54:22;;;;;;;9.07;7.83;;;10.40;58.90;;;;;;5016436;28;20573;-87
2021/04/28 00:57:06;;;;;;;13.07;8.70;;;10.40;59.20;;;;;;5016390;28;20438;-87
2021/04/28 00:59:56;;;;;;;9.43;7.97;;;10.40;59.50;;;;;;5020118;28;20461;-87
2021/04/28 01:02:36;;;;;;;9.83;8.30;;;10.40;59.70;;;;;;5036407;28;20453;-86
2021/04/28 01:05:11;;;;;;;12.53;7.83;;;10.30;59.90;;;;;;5056695;28;20437;-86
2021/04/28 01:07:50;;;;;;;10.23;8.30;;;10.10;60.40;;;;;;5046898;28;20559;-87
2021/04/28 01:21:29;;;;;;;8.93;8.03;;;10.00;62.10;;;;;;4956645;29;20480;-87
2021/04/28 01:24:14;;;;;;;11.37;7.70;;;10.00;62.60;;;;;;5012278;28;20513;-87
2021/04/28 01:30:46;;;;;;;13.10;9.13;;;10.10;62.60;;;;;;5048556;28;20606;-87
2021/04/28 01:33:36;;;;;;;12.57;8.43;;;10.00;62.50;;;;;;5035601;28;20476;-87
2021/04/28 01:36:21;;;;;;;13.77;9.10;;;10.00;62.40;;;;;;5036249;28;20499;-87
2021/04/28 01:39:18;;;;;;;19.70;10.00;;;9.90;63.40;;;;;;5035589;28;20552;-87
2021/04/28 01:42:26;;;;;;;8.77;7.87;;;10.00;62.30;;;;;;4996472;28;20449;-87
2021/04/28 01:45:22;;;;;;;9.60;8.60;;;10.00;62.30;;;;;;5028598;28;20465;-85
2021/04/28 01:48:15;;;;;;;11.33;10.20;;;9.90;63.30;;;;;;5050445;28;20465;-87
2021/04/28 01:50:58;;;;;;;12.30;9.53;;;9.90;62.60;;;;;;5045628;28;20532;-86
2021/04/28 01:53:30;;;;;;;13.40;10.97;;;10.00;61.90;;;;;;5051813;28;20519;-87
2021/04/28 01:56:07;;;;;;;13.97;10.70;;;9.90;62.40;;;;;;5037059;28;20529;-87
2021/04/28 01:59:21;;;;;;;13.77;11.13;;;9.80;62.50;;;;;;5037222;28;20503;-87
2021/04/28 02:02:26;;;;;;;11.43;10.20;;;9.80;62.80;;;;;;5042622;28;20494;-86
2021/04/28 02:08:12;;;;;;;14.33;12.63;;;9.80;62.20;;;;;;5040999;28;20529;-86
2021/04/28 02:11:26;;;;;;;18.03;11.87;;;9.60;61.60;;;;;;5045960;28;20452;-87
2021/04/28 02:18:10;;;;;;;12.83;11.50;;;9.60;62.80;;;;;;5056025;28;20468;-86
2021/04/28 02:23:56;;;;;;;10.70;9.60;;;9.30;65.70;;;;;;5034021;28;20432;-87
2021/04/28 02:26:31;;;;;;;11.70;9.90;;;9.40;66.70;;;;;;5034019;28;20440;-86
2021/04/28 02:29:07;;;;;;;11.47;8.80;;;9.40;67.00;;;;;;5039402;28;20460;-87
2021/04/28 02:31:54;;;;;;;;;;;;;;;;;;;;;
2021/04/28 02:34:31;;;;;;;12.80;9.30;;;9.30;67.70;;;;;;5047812;28;20491;-87
2021/04/28 02:40:21;;;;;;;14.20;8.80;;;9.20;68.70;;;;;;5005995;28;20465;-88
2021/04/28 02:43:05;;;;;;;10.57;9.37;;;9.20;69.10;;;;;;5033650;28;20438;-87
2021/04/28 02:46:18;;;;;;;13.33;9.70;;;9.30;69.00;;;;;;5034054;28;20616;-88
2021/04/28 02:49:08;;;;;;;12.40;9.80;;;9.20;69.00;;;;;;4971128;28;20475;-87
2021/04/28 02:51:56;;;;;;;11.37;10.27;;;9.20;69.30;;;;;;4972444;28;20551;-88
2021/04/28 02:54:23;;;;;;;12.33;9.93;;;9.10;69.30;;;;;;5033462;28;20567;-87
2021/04/28 02:56:57;;;;;;;13.27;11.00;;;9.00;70.00;;;;;;5033786;28;20457;-88
2021/04/28 02:59:31;;;;;;;12.10;10.90;;;8.90;70.40;;;;;;5033650;28;20438;-87
2021/04/28 03:01:57;;;;;;;15.97;11.07;;;9.00;70.50;;;;;;5033679;28;20453;-87
2021/04/28 03:04:36;;;;;;;16.23;12.27;;;8.90;70.20;;;;;;5033045;28;20825;-87
2021/04/28 03:07:18;;;;;;;14.43;11.10;;;8.90;70.60;;;;;;5032872;28;20491;-87
2021/04/28 03:09:57;;;;;;;13.07;11.57;;;8.90;70.60;;;;;;5036666;28;20972;-87
2021/04/28 03:12:49;;;;;;;10.53;9.50;;;8.90;71.00;;;;;;5036756;28;20457;-88
2021/04/28 03:15:25;;;;;;;13.43;10.20;;;8.80;70.60;;;;;;5038929;28;20464;-87
2021/04/28 03:17:52;;;;;;;15.17;11.33;;;8.80;70.60;;;;;;5041051;28;20462;-86
2021/04/28 03:20:41;;;;;;;11.00;8.93;;;8.80;70.70;;;;;;5039790;28;20513;-87
2021/04/28 03:23:29;;;;;;;13.80;10.50;;;8.80;71.10;;;;;;5049495;28;20437;-86
2021/04/28 03:26:11;;;;;;;13.13;10.70;;;8.70;71.20;;;;;;5040445;28;20487;-87
2021/04/28 03:32:23;;;;;;;14.13;10.87;;;8.80;71.30;;;;;;5036350;28;20552;-88
2021/04/28 03:34:56;;;;;;;14.40;12.87;;;8.70;71.70;;;;;;5037758;28;20473;-88
2021/04/28 03:37:26;;;;;;;16.73;14.93;;;8.70;71.60;;;;;;5035221;22;21247;-86
2021/04/28 03:39:57;;;;;;;17.40;15.27;;;8.70;71.40;;;;;;5085636;28;20450;-84
2021/04/28 03:42:27;;;;;;;18.63;15.67;;;8.70;71.20;;;;;;5082255;28;20947;-87
2021/04/28 03:45:01;;;;;;;21.93;16.33;;;8.70;71.00;;;;;;5078670;28;20455;-86
2021/04/28 03:47:28;;;;;;;22.73;17.00;;;8.70;71.00;;;;;;5081998;28;20463;-85
2021/04/28 03:50:00;;;;;;;22.87;17.13;;;8.60;71.20;;;;;;5072416;28;20892;-86
2021/04/28 03:52:32;;;;;;;23.33;17.67;;;8.60;71.40;;;;;;5071342;28;20515;-83
2021/04/28 03:55:11;;;;;;;24.63;19.10;;;8.50;71.50;;;;;;5072168;28;20531;-85
2021/04/28 03:57:46;;;;;;;20.50;18.07;;;8.60;71.70;;;;;;5075969;28;20475;-83
2021/04/28 04:03:09;;;;;;;21.30;17.13;;;8.60;71.10;;;;;;5056005;28;20761;-85
2021/04/28 04:05:51;;;;;;;18.50;14.87;;;8.50;71.90;;;;;;5067211;28;20452;-85
2021/04/28 04:08:42;;;;;;;18.93;12.80;;;8.50;72.70;;;;;;5066823;28;20472;-85
2021/04/28 04:11:20;;;;;;;23.33;17.30;;;8.50;73.20;;;;;;5061700;28;20514;-85
2021/04/28 04:14:08;;;;;;;21.80;18.77;;;8.50;73.30;;;;;;5072370;28;20602;-84
2021/04/28 04:16:49;;;;;;;24.77;17.50;;;8.50;73.30;;;;;;5063509;28;20464;-86
2021/04/28 04:19:31;;;;;;;23.03;17.20;;;8.40;73.40;;;;;;5040901;28;20461;-84
2021/04/28 04:22:20;;;;;;;18.47;16.47;;;8.40;73.80;;;;;;5037571;28;20472;-84
2021/04/28 04:25:06;;;;;;;21.87;16.10;;;8.40;73.90;;;;;;5048899;28;20583;-85
2021/04/28 04:28:04;;;;;;;19.90;16.03;;;8.30;74.40;;;;;;5051483;28;20480;-86
2021/04/28 04:31:14;;;;;;;17.73;14.67;;;8.40;74.80;;;;;;5042117;28;20450;-86
2021/04/28 04:37:04;;;;;;;21.80;17.00;;;8.40;75.30;;;;;;4993262;28;20498;-84
2021/04/28 04:46:28;;;;;;;20.93;18.23;;;8.60;74.30;;;;;;5008203;28;20469;-83
2021/04/28 04:49:39;;;;;;;20.63;18.57;;;8.70;73.60;;;;;;5037754;28;20476;-84
2021/04/28 04:52:13;;;;;;;25.70;19.03;;;9.00;73.50;;;;;;5036244;28;20437;-84
2021/04/28 04:55:06;;;;;;;;;;;;;;;;;;;;;
2021/04/28 04:57:56;;;;;;;27.10;20.53;;;9.40;70.90;;;;;;5036265;28;20461;-85
2021/04/28 05:00:37;;;;;;;24.87;19.83;;;9.60;69.00;;;;;;5038529;28;20454;-86
2021/04/28 05:12:45;;;;;;;23.87;19.23;;;10.70;62.80;;;;;;5033314;28;20441;-85
2021/04/28 05:21:21;;;;;;;21.13;18.10;;;11.90;59.50;;;;;;4873184;29;20460;-85
2021/04/28 05:36:18;;;;;;;27.00;18.33;;;13.10;56.60;;;;;;5012526;28;20437;-85
2021/04/28 05:39:11;;;;;;;21.70;17.27;;;13.10;56.70;;;;;;4983972;28;20615;-85
2021/04/28 05:42:12;;;;;;;19.10;16.53;;;13.00;56.40;;;;;;5047004;28;20473;-85
2021/04/28 05:54:22;;;;;;;21.87;16.40;;;14.50;53.90;;;;;;4955692;28;20514;-86
2021/04/28 06:01:16;;;;;;;16.00;14.40;;;15.50;51.40;;;;;;4995802;28;20487;-84
2021/04/28 06:10:56;;;;;;;16.07;13.40;;;16.70;48.70;;;;;;4965020;28;20456;-86
2021/04/28 06:13:46;;;;;;;15.10;13.67;;;17.00;48.30;;;;;;4961433;28;20536;-84
2021/04/28 06:27:08;;;;;;;14.10;12.70;;;16.90;48.20;;;;;;4878732;29;20456;-85
2021/04/28 06:30:16;;;;;;;13.77;12.57;;;17.20;47.40;;;;;;4844529;29;20693;-85
2021/04/28 06:32:55;;;;;;;16.63;12.70;;;17.60;47.30;;;;;;4862045;29;20453;-87
2021/04/28 06:35:48;;;;;;;12.63;11.53;;;17.90;46.60;;;;;;4938038;29;20452;-86
2021/04/28 06:45:35;;;;;;;;;;;;;;;;;;;;;
2021/04/28 06:48:43;;;;;;;15.27;13.80;;;18.70;45.90;;;;;;4899115;29;20592;-87
2021/04/28 07:09:15;;;;;;;15.30;12.90;;;20.20;42.10;;;;;;4881007;29;20550;-86
2021/04/28 07:12:48;;;;;;;;;;;;;;;;;;;;;
2021/04/28 07:51:05;;;;;;;17.30;14.37;;;24.50;34.60;;;;;;4797892;29;20447;-85
2021/04/28 08:04:20;;;;;;;16.90;15.30;;;25.20;34.20;;;;;;4918334;29;20496;-85
2021/04/28 08:10:19;;;;;;;;;;;;;;;;;;;;;
2021/04/28 09:12:23;;;;;;;17.83;15.97;;;30.60;29.10;;;;;;4892124;29;20457;-86
2021/04/28 09:14:49;;;;;;;17.83;15.93;;;31.80;28.90;;;;;;4987448;28;20446;-86
2021/04/28 09:17:16;;;;;;;16.43;15.03;;;32.00;27.50;;;;;;5038029;28;20465;-84
2021/04/28 09:19:50;;;;;;;18.63;16.10;;;31.20;28.10;;;;;;5040636;28;20511;-84
2021/04/28 09:22:20;;;;;;;18.37;16.67;;;31.20;28.40;;;;;;5046812;28;20476;-85
2021/04/28 09:24:49;;;;;;;18.10;16.40;;;30.80;28.00;;;;;;5040525;28;20584;-86
2021/04/28 09:27:27;;;;;;;16.97;15.27;;;31.60;28.30;;;;;;5054033;28;20444;-87
2021/04/28 09:29:53;;;;;;;17.17;15.67;;;32.50;27.60;;;;;;5049341;28;20441;-85
2021/04/28 09:32:29;;;;;;;17.63;15.87;;;32.60;26.70;;;;;;5039963;28;20876;-85
2021/04/28 09:35:11;;;;;;;18.20;16.60;;;32.30;26.50;;;;;;5040762;28;20503;-84
2021/04/28 09:37:50;;;;;;;20.43;16.13;;;32.90;26.20;;;;;;5043436;28;20976;-86
2021/04/28 09:40:17;;;;;;;17.60;15.80;;;32.10;26.50;;;;;;5040456;28;20453;-86
2021/04/28 09:42:52;;;;;;;23.30;17.00;;;31.60;26.80;;;;;;5039894;28;20497;-85
2021/04/28 09:45:40;;;;;;;16.90;15.40;;;32.00;27.10;;;;;;5042741;28;20480;-85
2021/04/28 09:48:09;;;;;;;18.67;16.87;;;32.60;25.80;;;;;;5040892;28;20492;-86
2021/04/28 09:50:35;;;;;;;17.97;16.43;;;32.80;26.20;;;;;;5041025;28;20443;-87
2021/04/28 09:53:02;;;;;;;15.27;13.93;;;33.50;25.70;;;;;;5042587;28;20459;-87
2021/04/28 09:55:31;;;;;;;15.70;14.00;;;32.70;24.50;;;;;;5039527;28;20460;-85
2021/04/28 09:57:57;;;;;;;18.87;16.97;;;32.30;24.50;;;;;;5044642;28;20485;-86
2021/04/28 10:00:24;;;;;;;14.50;13.20;;;33.30;24.20;;;;;;5038855;28;20437;-86
2021/04/28 10:02:53;;;;;;;14.77;12.57;;;34.40;23.00;;;;;;5038649;28;20449;-85
2021/04/28 10:05:26;;;;;;;14.23;12.93;;;34.80;22.10;;;;;;5038240;28;20543;-87
2021/04/28 10:08:05;;;;;;;14.70;13.40;;;35.00;22.20;;;;;;5037498;28;20472;-84
2021/04/28 10:10:33;;;;;;;15.23;13.90;;;34.60;22.20;;;;;;5038458;28;20444;-84
2021/04/28 10:12:59;;;;;;;14.90;13.47;;;34.90;21.90;;;;;;5039943;28;20445;-86
2021/04/28 10:15:25;;;;;;;13.87;12.63;;;34.40;22.50;;;;;;5040442;28;20465;-85
2021/04/28 10:17:52;;;;;;;15.57;14.07;;;34.60;22.90;;;;;;5038271;28;20844;-85
2021/04/28 10:20:20;;;;;;;13.70;12.50;;;34.90;22.60;;;;;;5038249;28;20449;-85
2021/04/28 10:22:49;;;;;;;15.43;13.93;;;34.50;22.80;;;;;;5071823;22;20488;-86
2021/04/28 10:25:17;;;;;;;14.33;13.23;;;35.50;22.20;;;;;;5065666;28;20503;-85
2021/04/28 10:27:46;;;;;;;15.37;13.87;;;35.20;22.20;;;;;;5076449;28;20464;-85
2021/04/28 10:30:16;;;;;;;12.83;11.63;;;34.00;22.10;;;;;;5072400;28;20452;-86
2021/04/28 10:32:43;;;;;;;13.47;12.20;;;34.10;22.20;;;;;;5068597;28;20456;-85
2021/04/28 10:35:12;;;;;;;12.53;10.67;;;33.90;21.60;;;;;;5061938;28;20973;-85
2021/04/28 10:37:41;;;;;;;11.93;10.73;;;33.60;22.20;;;;;;5055298;28;20465;-84
2021/04/28 10:40:12;;;;;;;11.80;10.80;;;35.80;21.20;;;;;;5043798;28;20445;-86
2021/04/28 10:42:39;;;;;;;11.50;10.50;;;36.60;20.80;;;;;;5047780;28;20477;-85
2021/04/28 10:45:08;;;;;;;14.87;13.47;;;37.00;19.90;;;;;;5042223;28;20549;-86
2021/04/28 10:47:40;;;;;;;14.13;13.00;;;37.90;19.90;;;;;;5041722;28;20453;-86
2021/04/28 10:50:19;;;;;;;12.43;11.33;;;37.60;19.10;;;;;;5040972;28;20516;-85
2021/04/28 10:52:49;;;;;;;11.13;10.13;;;38.00;19.00;;;;;;5063890;28;20472;-85
2021/04/28 10:55:49;;;;;;;11.43;10.53;;;38.80;18.90;;;;;;5061069;28;20456;-85
2021/04/28 10:58:35;;;;;;;11.10;10.10;;;39.30;18.10;;;;;;5064295;28;20455;-85
2021/04/28 11:01:30;;;;;;;10.47;9.50;;;40.80;17.10;;;;;;5059415;28;20452;-84
2021/04/28 11:03:57;;;;;;;10.80;10.00;;;41.00;16.70;;;;;;5075952;28;20484;-84
2021/04/28 11:06:34;;;;;;;10.40;9.30;;;40.90;16.20;;;;;;5067198;28;20795;-85
2021/04/28 11:09:17;;;;;;;10.50;9.60;;;41.40;16.40;;;;;;5060984;28;20519;-86
2021/04/28 11:11:46;;;;;;;10.20;9.23;;;41.70;16.10;;;;;;5064347;28;20480;-85
2021/04/28 11:14:36;;;;;;;10.37;9.67;;;41.70;16.10;;;;;;5063288;28;20478;-84
2021/04/28 11:17:26;;;;;;;10.67;9.87;;;41.20;16.10;;;;;;5064364;28;20428;-85
2021/04/28 11:19:53;;;;;;;11.53;10.33;;;37.70;17.40;;;;;;5063411;28;20450;-85
2021/04/28 11:22:26;;;;;;;10.80;9.73;;;36.20;18.40;;;;;;5042867;28;20904;-86
2021/04/28 11:25:06;;;;;;;11.13;10.13;;;35.30;19.10;;;;;;5044731;28;20575;-85
2021/04/28 11:27:48;;;;;;;10.50;9.40;;;33.70;19.80;;;;;;5044274;28;20452;-86
2021/04/28 11:30:27;;;;;;;12.10;11.00;;;34.30;20.00;;;;;;5048627;28;20437;-85
2021/04/28 11:33:36;;;;;;;11.73;10.63;;;32.70;20.30;;;;;;5050028;28;20480;-84
2021/04/28 11:36:14;;;;;;;10.63;8.97;;;30.60;22.10;;;;;;5036305;28;20449;-85
2021/04/28 11:38:44;;;;;;;10.60;9.70;;;32.00;21.50;;;;;;5057722;28;20445;-84
2021/04/28 11:41:13;;;;;;;10.50;9.70;;;33.70;21.10;;;;;;5054814;28;20449;-85
2021/04/28 11:43:43;;;;;;;11.50;10.50;;;36.60;19.50;;;;;;5047523;28;20507;-83
2021/04/28 11:46:12;;;;;;;10.43;9.53;;;36.30;18.00;;;;;;5046525;28;20445;-84
2021/04/28 11:48:39;;;;;;;10.63;9.53;;;36.20;19.00;;;;;;5048738;28;20479;-84
2021/04/28 11:51:08;;;;;;;10.47;9.03;;;37.00;18.20;;;;;;5052563;28;20448;-84
2021/04/28 11:53:41;;;;;;;10.70;9.70;;;37.50;18.00;;;;;;5047937;28;20848;-84
2021/04/28 11:56:07;;;;;;;10.50;9.70;;;36.10;18.60;;;;;;5063658;28;20451;-84
2021/04/28 11:58:33;;;;;;;10.43;9.40;;;34.10;19.50;;;;;;5056433;28;20535;-84
2021/04/28 12:01:05;;;;;;;10.10;9.23;;;32.40;20.60;;;;;;5058378;28;20522;-85
2021/04/28 12:03:53;;;;;;;10.60;9.60;;;30.90;22.00;;;;;;5061297;28;20995;-85
2021/04/28 12:06:51;;;;;;;10.60;9.67;;;29.70;23.10;;;;;;5062067;28;20483;-85
2021/04/28 12:09:36;;;;;;;10.53;9.63;;;28.90;23.90;;;;;;5053094;28;20452;-85
2021/04/28 12:12:17;;;;;;;11.20;10.10;;;28.20;24.80;;;;;;5054510;28;20530;-84
2021/04/28 12:14:48;;;;;;;11.50;10.37;;;28.30;24.70;;;;;;5051563;28;20437;-87
2021/04/28 12:24:39;;;;;;;11.13;9.67;;;27.50;25.60;;;;;;5047789;28;20481;-87
2021/04/28 12:41:05;;;;;;;10.00;9.03;;;34.40;21.00;;;;;;4994362;28;20442;-86
2021/04/28 12:43:36;;;;;;;9.93;9.03;;;34.40;20.50;;;;;;4980327;28;20498;-86
2021/04/28 12:46:04;;;;;;;11.03;9.93;;;35.80;20.30;;;;;;4989136;28;20444;-87
2021/04/28 12:48:52;;;;;;;10.63;9.67;;;36.40;20.00;;;;;;5022408;28;20437;-87
2021/04/28 12:51:18;;;;;;;9.80;8.90;;;37.20;19.20;;;;;;5048168;28;20479;-87
2021/04/28 12:53:45;;;;;;;9.63;8.70;;;34.40;19.40;;;;;;5049692;28;20445;-86
2021/04/28 12:56:11;;;;;;;10.57;9.57;;;32.50;20.90;;;;;;5039019;28;20451;-86
2021/04/28 12:58:45;;;;;;;10.30;9.40;;;30.50;22.00;;;;;;5040108;28;20506;-86
2021/04/28 13:01:16;;;;;;;9.30;8.40;;;28.60;23.60;;;;;;5040765;28;20460;-86
2021/04/28 13:03:43;;;;;;;8.53;7.67;;;28.00;24.70;;;;;;5043706;28;20481;-86
2021/04/28 13:06:18;;;;;;;10.87;8.63;;;27.90;24.70;;;;;;5041905;28;20487;-86
2021/04/28 13:08:46;;;;;;;11.37;8.33;;;27.70;24.50;;;;;;5071298;28;20439;-87
2021/04/28 13:11:15;;;;;;;8.57;7.73;;;27.40;25.00;;;;;;5074436;28;20459;-86
2021/04/28 13:13:49;;;;;;;8.27;7.43;;;27.30;25.10;;;;;;5061157;28;20449;-86
2021/04/28 13:16:37;;;;;;;9.63;8.63;;;27.80;25.10;;;;;;5056197;28;20454;-86
2021/04/28 13:19:08;;;;;;;10.53;8.37;;;27.30;25.20;;;;;;5063081;28;20451;-86
2021/04/28 13:21:36;;;;;;;10.23;8.30;;;26.60;25.80;;;;;;5065718;28;20460;-86
2021/04/28 13:24:08;;;;;;;9.40;8.50;;;26.60;26.00;;;;;;5072041;28;20680;-85
2021/04/28 13:26:37;;;;;;;10.57;8.67;;;26.70;25.90;;;;;;5061000;28;20456;-87
2021/04/28 13:29:06;;;;;;;9.67;7.67;;;26.80;26.00;;;;;;5063190;28;20456;-86
2021/04/28 13:31:34;;;;;;;9.73;8.60;;;27.10;25.70;;;;;;5058630;28;20488;-86
2021/04/28 13:34:04;;;;;;;9.03;8.13;;;26.90;26.60;;;;;;5061193;28;20511;-87
2021/04/28 13:36:33;;;;;;;8.27;7.47;;;26.20;27.30;;;;;;5072423;28;20453;-86
2021/04/28 13:39:06;;;;;;;8.20;7.40;;;26.30;26.50;;;;;;5061383;28;20499;-86
2021/04/28 13:44:56;;;;;;;11.00;9.90;;;29.80;24.60;;;;;;5037421;28;20986;-87
2021/04/28 13:47:22;;;;;;;10.03;8.10;;;31.20;24.60;;;;;;5038887;28;20496;-87
2021/04/28 13:49:52;;;;;;;11.53;9.83;;;31.50;24.40;;;;;;5062811;28;20477;-85
2021/04/28 13:52:21;;;;;;;10.17;9.03;;;31.70;24.10;;;;;;5057654;28;20863;-85
2021/04/28 13:54:48;;;;;;;9.70;8.10;;;31.50;23.90;;;;;;5055233;28;20474;-86
2021/04/28 13:57:15;;;;;;;10.57;8.77;;;32.50;24.40;;;;;;5054324;28;20472;-87
2021/04/28 13:59:41;;;;;;;8.80;7.90;;;32.50;23.70;;;;;;5060286;28;20517;-85
2021/04/28 14:02:09;;;;;;;14.20;9.70;;;30.20;24.50;;;;;;5055113;28;20857;-86
2021/04/28 14:04:36;;;;;;;14.40;9.60;;;29.00;25.70;;;;;;5059465;28;20993;-87
2021/04/28 14:07:02;;;;;;;12.07;9.53;;;28.10;26.90;;;;;;5057685;28;20452;-87
2021/04/28 14:09:28;;;;;;;9.03;8.13;;;27.30;27.10;;;;;;5055675;28;20447;-87
2021/04/28 14:11:55;;;;;;;9.30;8.30;;;27.20;27.90;;;;;;5042252;28;20480;-87
2021/04/28 14:14:21;;;;;;;9.43;8.43;;;27.30;28.20;;;;;;5034624;28;20450;-86
2021/04/28 14:16:48;;;;;;;10.93;9.73;;;27.30;28.10;;;;;;5038996;28;20451;-86
2021/04/28 14:19:15;;;;;;;10.27;8.60;;;27.20;28.00;;;;;;5054541;28;20448;-86
2021/04/28 14:21:41;;;;;;;11.00;8.60;;;27.20;28.30;;;;;;5076041;28;20460;-87
2021/04/28 14:24:09;;;;;;;14.33;10.07;;;27.10;28.20;;;;;;5065262;28;20484;-86
2021/04/28 14:26:35;;;;;;;12.23;9.07;;;26.50;28.80;;;;;;5042181;28;20454;-86
2021/04/28 14:29:01;;;;;;;10.30;9.17;;;26.50;28.50;;;;;;5045013;28;20447;-86
2021/04/28 14:31:27;;;;;;;10.57;7.90;;;26.60;28.60;;;;;;5045088;28;20444;-85
2021/04/28 14:33:55;;;;;;;11.67;8.00;;;26.70;28.40;;;;;;5048215;28;20449;-86
2021/04/28 14:36:22;;;;;;;8.63;7.83;;;27.20;28.50;;;;;;5040908;28;20477;-85
2021/04/28 14:38:51;;;;;;;8.77;7.90;;;27.20;28.00;;;;;;5037681;28;20437;-90
2021/04/28 14:41:25;;;;;;;8.90;8.20;;;27.60;28.40;;;;;;5056296;28;20436;-92
2021/04/28 14:43:51;;;;;;;8.93;8.03;;;27.50;28.00;;;;;;5069883;28;20491;-90
2021/04/28 14:46:17;;;;;;;9.23;7.77;;;27.40;27.90;;;;;;5075996;28;20496;-90
2021/04/28 15:05:15;;;;;;;8.53;7.70;;;27.00;28.10;;;;;;4950236;28;20515;-87
2021/04/28 15:08:03;;;;;;;9.57;6.97;;;26.40;28.80;;;;;;5003390;28;20450;-88
2021/04/28 15:11:05;;;;;;;7.70;7.00;;;25.80;29.00;;;;;;5016969;28;20458;-88
2021/04/28 15:13:33;;;;;;;7.30;6.60;;;25.40;30.00;;;;;;5001254;28;20480;-86
2021/04/28 15:16:00;;;;;;;7.50;6.73;;;25.20;30.00;;;;;;5009145;28;21003;-84
2021/04/28 15:18:26;;;;;;;8.83;7.93;;;25.00;30.00;;;;;;5017113;28;20464;-85
2021/04/28 15:20:52;;;;;;;7.43;6.73;;;24.60;30.50;;;;;;5013513;28;20468;-85
2021/04/28 15:23:19;;;;;;;7.97;7.00;;;24.50;30.80;;;;;;5005495;28;20483;-85
2021/04/28 15:25:45;;;;;;;9.10;7.60;;;24.20;30.90;;;;;;5006363;28;20986;-86
2021/04/28 15:28:12;;;;;;;8.70;7.80;;;24.10;31.40;;;;;;5006764;28;20446;-84
2021/04/28 15:30:40;;;;;;;8.77;7.10;;;24.00;31.50;;;;;;5008428;28;20449;-85
2021/04/28 15:33:09;;;;;;;9.20;8.03;;;24.10;31.70;;;;;;5008134;28;20474;-86
2021/04/28 15:35:35;;;;;;;10.60;9.60;;;24.20;31.70;;;;;;5004488;28;20460;-86
2021/04/28 15:38:02;;;;;;;7.30;6.37;;;24.40;31.50;;;;;;5002063;28;20457;-86
2021/04/28 15:40:29;;;;;;;8.77;6.33;;;24.50;31.60;;;;;;5004065;28;20449;-85
2021/04/28 15:42:57;;;;;;;7.40;6.70;;;24.50;31.40;;;;;;5008141;28;20533;-84
2021/04/28 15:45:24;;;;;;;11.50;6.40;;;24.30;31.30;;;;;;5008248;28;20544;-87
2021/04/28 15:47:51;;;;;;;7.50;6.70;;;24.40;31.60;;;;;;5008535;28;20463;-86
2021/04/28 15:50:18;;;;;;;10.90;6.63;;;24.30;31.90;;;;;;5014718;28;20450;-86
2021/04/28 15:52:47;;;;;;;9.40;7.53;;;24.10;31.80;;;;;;5012589;28;20464;-85
2021/04/28 15:55:14;;;;;;;6.30;5.70;;;23.90;32.10;;;;;;5008021;28;20527;-86
2021/04/28 15:57:40;;;;;;;8.07;7.27;;;23.80;32.50;;;;;;5014893;28;20462;-86
2021/04/28 16:00:18;;;;;;;8.70;7.17;;;23.60;32.20;;;;;;5007792;28;20475;-86
2021/04/28 16:02:48;;;;;;;7.00;6.27;;;23.60;32.30;;;;;;5013560;28;20498;-84
2021/04/28 16:05:16;;;;;;;7.40;6.07;;;23.70;32.60;;;;;;5005280;28;20510;-86
2021/04/28 16:07:48;;;;;;;8.07;7.27;;;23.70;32.50;;;;;;5006953;28;20452;-86
2021/04/28 16:10:15;;;;;;;9.90;6.53;;;23.60;32.20;;;;;;5006445;28;20440;-86
2021/04/28 16:12:41;;;;;;;6.30;5.70;;;23.40;32.60;;;;;;5009616;28;20455;-85
2021/04/28 16:15:08;;;;;;;7.17;6.07;;;23.40;32.80;;;;;;5003308;28;20451;-85
2021/04/28 16:17:35;;;;;;;9.47;6.50;;;23.40;33.20;;;;;;5004824;28;20504;-85
2021/04/28 16:20:01;;;;;;;7.20;5.90;;;23.40;33.40;;;;;;5003181;28;21133;-85
2021/04/28 16:22:34;;;;;;;6.60;5.93;;;23.30;32.90;;;;;;5007012;28;20495;-85
2021/04/28 16:25:00;;;;;;;10.50;6.80;;;23.40;33.30;;;;;;5074442;22;20523;-86
2021/04/28 16:27:26;;;;;;;8.43;7.40;;;23.40;33.70;;;;;;5077800;28;20961;-85
2021/04/28 16:29:54;;;;;;;7.67;6.27;;;23.40;33.40;;;;;;5072004;28;20443;-85
2021/04/28 16:32:20;;;;;;;7.83;6.90;;;23.30;33.80;;;;;;5058872;28;20448;-85
2021/04/28 16:34:47;;;;;;;9.57;6.60;;;23.20;33.80;;;;;;5075180;28;20472;-85
2021/04/28 16:37:13;;;;;;;7.40;6.07;;;22.90;33.90;;;;;;5071823;28;20441;-86
2021/04/28 16:39:40;;;;;;;7.27;6.57;;;22.90;34.30;;;;;;5072556;28;20429;-86
2021/04/28 16:42:06;;;;;;;7.13;6.40;;;22.80;34.20;;;;;;5060503;28;20455;-86
2021/04/28 16:44:33;;;;;;;7.67;6.83;;;22.70;34.30;;;;;;5058979;28;20783;-86
2021/04/28 16:46:59;;;;;;;8.00;7.00;;;22.70;34.40;;;;;;5058626;28;20471;-85
2021/04/28 16:49:25;;;;;;;6.53;5.57;;;22.70;34.60;;;;;;5057404;28;20858;-85
2021/04/28 16:51:51;;;;;;;8.23;6.73;;;22.80;34.50;;;;;;5058122;28;20467;-86
2021/04/28 16:54:18;;;;;;;7.40;6.60;;;22.90;35.20;;;;;;5044026;28;20472;-85
2021/04/28 16:56:45;;;;;;;7.13;5.70;;;23.00;34.60;;;;;;5037309;28;20508;-86
2021/04/28 16:59:11;;;;;;;6.80;6.20;;;23.00;34.40;;;;;;5036635;28;20972;-86
2021/04/28 17:01:37;;;;;;;8.90;6.53;;;23.00;34.10;;;;;;5043586;28;20457;-85
2021/04/28 17:04:04;;;;;;;7.63;5.80;;;22.90;33.90;;;;;;5066427;28;20492;-83
2021/04/28 17:06:30;;;;;;;6.90;6.20;;;22.90;34.00;;;;;;5064962;28;20447;-85
2021/04/28 17:08:56;;;;;;;7.93;6.40;;;22.80;33.70;;;;;;5076977;28;20468;-85
2021/04/28 17:11:22;;;;;;;6.93;6.23;;;22.60;34.10;;;;;;5059544;28;20479;-85
2021/04/28 17:13:49;;;;;;;8.57;6.37;;;22.60;34.20;;;;;;5058708;28;20860;-85
2021/04/28 17:16:17;;;;;;;7.80;5.90;;;22.50;34.70;;;;;;5058284;28;20816;-85
2021/04/28 17:18:43;;;;;;;7.50;6.80;;;22.50;34.60;;;;;;5043661;28;20548;-85
2021/04/28 17:21:09;;;;;;;8.93;6.50;;;22.50;34.50;;;;;;5038213;28;20446;-86
2021/04/28 17:23:36;;;;;;;7.87;6.47;;;22.50;34.80;;;;;;5036139;28;20486;-83
2021/04/28 17:26:02;;;;;;;6.87;6.20;;;22.40;35.00;;;;;;5037989;28;20837;-84
2021/04/28 17:28:28;;;;;;;7.80;7.07;;;22.30;35.00;;;;;;5045358;28;20445;-84
2021/04/28 17:30:55;;;;;;;7.20;6.50;;;22.20;35.30;;;;;;5035511;28;20453;-85
2021/04/28 17:33:21;;;;;;;13.23;9.50;;;22.10;35.50;;;;;;5039143;28;20472;-85
2021/04/28 17:35:48;;;;;;;7.90;7.10;;;22.00;35.70;;;;;;5058813;28;20447;-84
2021/04/28 17:38:14;;;;;;;8.83;6.97;;;22.00;35.80;;;;;;5058181;28;20444;-87
2021/04/28 17:40:40;;;;;;;10.30;6.50;;;22.00;36.30;;;;;;5056969;28;20514;-84
2021/04/28 17:43:07;;;;;;;6.87;6.17;;;22.00;36.00;;;;;;5056838;28;20510;-83
2021/04/28 17:45:33;;;;;;;8.30;7.07;;;22.00;36.20;;;;;;5056872;28;20483;-84
2021/04/28 17:48:00;;;;;;;7.97;6.23;;;21.90;36.30;;;;;;5057088;28;20451;-84
2021/04/28 17:50:26;;;;;;;8.27;5.57;;;21.80;35.80;;;;;;5046380;28;20455;-84
2021/04/28 17:52:56;;;;;;;6.30;5.70;;;21.70;36.10;;;;;;5044218;28;20470;-86
2021/04/28 17:55:22;;;;;;;6.63;6.03;;;21.60;36.50;;;;;;5047819;28;20453;-87
2021/04/28 17:57:48;;;;;;;10.17;8.77;;;21.60;36.80;;;;;;5056860;28;20454;-88
2021/04/28 18:00:15;;;;;;;7.20;6.50;;;21.60;37.00;;;;;;5056474;28;20823;-86
2021/04/28 18:02:42;;;;;;;6.23;5.63;;;21.60;37.00;;;;;;5056245;28;20444;-87
2021/04/28 18:05:11;;;;;;;7.00;6.17;;;21.60;37.20;;;;;;5053099;28;20476;-86
2021/04/28 18:07:37;;;;;;;8.77;6.13;;;21.50;37.20;;;;;;5055082;28;20432;-86
2021/04/28 18:10:06;;;;;;;7.90;6.30;;;21.40;37.60;;;;;;5055093;28;20432;-86
2021/04/28 18:12:32;;;;;;;11.77;6.63;;;21.40;37.50;;;;;;5059206;28;20610;-86
2021/04/28 18:14:58;;;;;;;10.73;6.80;;;21.40;37.70;;;;;;5071070;28;20449;-84
2021/04/28 18:17:24;;;;;;;15.47;6.47;;;21.30;38.20;;;;;;5061434;28;20948;-84